createdAt,value
2018-06-10T00:00:19.736Z,98.64
2018-06-10T00:02:47.934Z,97.03
2018-06-10T00:05:16.097Z,97.59
2018-06-10T00:07:44.231Z,95.80
2018-06-10T00:10:12.506Z,94.94
2018-06-10T00:12:40.728Z,93.63
2018-06-10T00:15:09.207Z,92.42
2018-06-10T00:17:37.443Z,92.88
2018-06-10T00:20:05.910Z,93.81
2018-06-10T00:22:34.115Z,92.78
2018-06-10T00:25:02.351Z,94.24
2018-06-10T00:27:30.457Z,94.48
2018-06-10T00:29:58.673Z,93.34
2018-06-10T00:32:26.806Z,92.53
2018-06-10T00:34:54.859Z,92.26
2018-06-10T00:37:23.046Z,93.41
2018-06-10T00:39:51.233Z,93.92
2018-06-10T00:42:19.937Z,94.13
2018-06-10T00:44:48.503Z,93.99
2018-06-10T00:47:17.291Z,93.62
2018-06-10T00:49:46.332Z,94.76
2018-06-10T00:52:14.569Z,95.47
2018-06-10T00:54:43.391Z,94.59
2018-06-10T00:57:12.514Z,95.09
2018-06-10T00:59:45.483Z,96.12
2018-06-10T01:02:14.103Z,95.10
2018-06-10T01:04:42.346Z,94.77
2018-06-10T01:07:10.897Z,93.34
2018-06-10T01:09:39.542Z,94.71
2018-06-10T01:12:08.606Z,95.42
2018-06-10T01:14:36.826Z,97.12
2018-06-10T01:17:05.057Z,98.11
2018-06-10T01:19:33.303Z,98.35
2018-06-10T01:22:01.503Z,99.60
2018-06-10T01:24:29.626Z,100.00
2018-06-10T01:26:57.729Z,99.55
2018-06-10T01:29:26.210Z,98.58
2018-06-10T01:31:54.295Z,99.26
2018-06-10T01:34:22.929Z,98.70
2018-06-10T01:36:51.382Z,98.85
2018-06-10T01:39:19.626Z,98.44
2018-06-10T01:41:47.853Z,98.78
2018-06-10T01:44:16.353Z,98.73
2018-06-10T01:46:44.711Z,96.47
2018-06-10T01:49:13.066Z,96.45
2018-06-10T01:51:41.370Z,96.96
2018-06-10T01:54:09.620Z,96.43
2018-06-10T01:56:37.799Z,98.41
2018-06-10T01:59:05.973Z,99.39
2018-06-10T02:01:34.177Z,99.94
2018-06-10T02:04:03.552Z,99.32
2018-06-10T02:06:31.796Z,99.86
2018-06-10T02:09:00.099Z,98.70
2018-06-10T02:11:28.264Z,97.88
2018-06-10T02:13:56.517Z,98.01
2018-06-10T02:16:24.646Z,97.78
2018-06-10T02:18:52.681Z,97.38
2018-06-10T02:21:21.497Z,97.86
2018-06-10T02:23:49.675Z,97.21
2018-06-10T02:26:17.840Z,97.59
2018-06-10T02:28:45.984Z,97.56
2018-06-10T02:31:14.138Z,97.84
2018-06-10T02:33:42.459Z,98.27
2018-06-10T02:36:10.695Z,98.52
2018-06-10T02:38:38.849Z,98.03
2018-06-10T02:41:07.090Z,98.84
2018-06-10T02:43:35.201Z,99.16
2018-06-10T02:46:03.478Z,98.94
2018-06-10T02:48:31.641Z,99.39
2018-06-10T02:50:59.711Z,100.00
2018-06-10T02:53:27.901Z,100.00
2018-06-10T02:55:55.952Z,100.00
2018-06-10T02:58:24.233Z,99.60
2018-06-10T03:00:52.367Z,100.00
2018-06-10T03:03:20.497Z,100.00
2018-06-10T03:05:48.674Z,99.95
2018-06-10T03:08:16.786Z,99.19
2018-06-10T03:10:44.898Z,99.91
2018-06-10T03:13:13.165Z,99.92
2018-06-10T03:15:41.302Z,99.92
2018-06-10T03:18:09.447Z,99.74
2018-06-10T03:20:37.640Z,99.47
2018-06-10T03:23:05.875Z,100.00
2018-06-10T03:25:34.081Z,100.00
2018-06-10T03:28:02.234Z,100.00
2018-06-10T03:30:30.446Z,100.00
2018-06-10T03:32:58.566Z,100.00
2018-06-10T03:35:27.260Z,100.00
2018-06-10T03:37:55.448Z,100.00
2018-06-10T03:40:23.549Z,100.00
2018-06-10T03:42:51.657Z,100.00
2018-06-10T03:45:19.826Z,99.52
2018-06-10T03:47:47.921Z,98.61
2018-06-10T03:50:16.026Z,98.39
2018-06-10T03:52:44.140Z,98.45
2018-06-10T03:55:12.313Z,98.67
2018-06-10T03:57:40.498Z,99.78
2018-06-10T04:00:08.723Z,99.72
2018-06-10T04:02:36.844Z,98.77
2018-06-10T04:05:05.017Z,99.13
2018-06-10T04:07:33.154Z,98.34
2018-06-10T04:10:01.294Z,99.19
2018-06-10T04:12:29.852Z,96.97
2018-06-10T04:14:58.060Z,98.04
2018-06-10T04:17:26.209Z,98.05
2018-06-10T04:19:54.324Z,98.34
2018-06-10T04:22:22.529Z,98.49
2018-06-10T04:24:50.649Z,98.57
2018-06-10T04:27:18.859Z,96.77
2018-06-10T04:29:47.147Z,97.76
2018-06-10T04:32:15.315Z,98.29
2018-06-10T04:34:43.526Z,97.52
2018-06-10T04:37:11.684Z,95.80
2018-06-10T04:39:39.853Z,95.05
2018-06-10T04:42:07.985Z,93.46
2018-06-10T04:44:36.135Z,95.11
2018-06-10T04:47:04.309Z,94.86
2018-06-10T04:49:32.857Z,93.57
2018-06-10T04:52:01.112Z,91.47
2018-06-10T04:54:29.420Z,94.29
2018-06-10T04:56:57.538Z,94.05
2018-06-10T04:59:25.837Z,91.81
2018-06-10T05:01:54.035Z,92.79
2018-06-10T05:04:22.310Z,93.75
2018-06-10T05:06:50.468Z,93.75
2018-06-10T05:09:18.590Z,92.73
2018-06-10T05:11:46.741Z,92.23
2018-06-10T05:14:14.888Z,91.44
2018-06-10T05:16:43.225Z,91.59
2018-06-10T05:19:11.316Z,92.00
2018-06-10T05:21:39.651Z,90.64
2018-06-10T05:24:07.825Z,89.17
2018-06-10T05:26:36.365Z,87.40
2018-06-10T05:29:04.867Z,86.12
2018-06-10T05:31:32.993Z,86.37
2018-06-10T05:34:01.170Z,86.43
2018-06-10T05:36:29.322Z,86.01
2018-06-10T05:38:57.433Z,84.30
2018-06-10T05:41:25.647Z,83.93
2018-06-10T05:43:53.817Z,82.64
2018-06-10T05:46:21.988Z,78.35
2018-06-10T05:48:50.267Z,77.55
2018-06-10T05:51:18.502Z,77.64
2018-06-10T05:53:46.726Z,70.45
2018-06-10T05:56:15.210Z,68.09
2018-06-10T05:58:43.366Z,63.78
2018-06-10T06:01:11.544Z,64.10
2018-06-10T06:03:40.226Z,63.59
2018-06-10T06:08:41.253Z,62.57
2018-06-10T06:11:09.445Z,63.53
2018-06-10T06:13:38.093Z,59.42
2018-06-10T06:16:06.289Z,56.88
2018-06-10T06:18:34.502Z,54.66
2018-06-10T06:21:02.826Z,50.92
2018-06-10T06:23:30.930Z,54.38
2018-06-10T06:25:59.069Z,59.45
2018-06-10T06:28:27.357Z,55.22
2018-06-10T06:30:55.473Z,55.80
2018-06-10T06:33:23.623Z,55.13
2018-06-10T06:35:51.802Z,56.12
2018-06-10T06:38:19.941Z,59.69
2018-06-10T06:40:48.076Z,56.31
2018-06-10T06:43:16.209Z,54.77
2018-06-10T06:45:44.354Z,55.99
2018-06-10T06:48:12.603Z,51.56
2018-06-10T06:50:41.290Z,54.85
2018-06-10T06:53:09.449Z,54.54
2018-06-10T06:55:37.939Z,52.11
2018-06-10T07:00:39.156Z,54.60
2018-06-10T07:03:07.309Z,55.54
2018-06-10T07:05:35.517Z,52.60
2018-06-10T07:08:03.670Z,55.87
2018-06-10T07:10:31.838Z,51.79
2018-06-10T07:12:59.978Z,52.81
2018-06-10T07:15:28.448Z,53.22
2018-06-10T07:17:56.617Z,50.76
2018-06-10T07:20:24.788Z,58.39
2018-06-10T07:22:52.939Z,56.05
2018-06-10T07:25:21.136Z,54.14
2018-06-10T07:27:49.506Z,55.13
2018-06-10T07:30:17.674Z,55.06
2018-06-10T07:32:46.223Z,56.38
2018-06-10T07:35:14.413Z,57.52
2018-06-10T07:37:42.542Z,59.52
2018-06-10T07:40:10.677Z,59.62
2018-06-10T07:42:39.029Z,63.15
2018-06-10T07:45:07.086Z,62.98
2018-06-10T07:47:35.187Z,65.91
2018-06-10T07:50:03.401Z,63.82
2018-06-10T07:52:31.607Z,64.03
2018-06-10T07:54:59.739Z,63.98
2018-06-10T07:57:27.863Z,63.84
2018-06-10T07:59:56.027Z,64.26
2018-06-10T08:02:24.514Z,64.33
2018-06-10T08:04:52.710Z,63.37
2018-06-10T08:07:20.805Z,62.01
2018-06-10T08:09:49.309Z,62.11
2018-06-10T08:12:17.553Z,63.33
2018-06-10T08:14:45.810Z,63.99
2018-06-10T08:17:15.812Z,63.44
2018-06-10T08:19:44.218Z,62.81
2018-06-10T08:22:13.545Z,63.86
2018-06-10T08:24:42.036Z,62.95
2018-06-10T08:27:11.337Z,63.97
2018-06-10T08:29:39.869Z,65.29
2018-06-10T08:32:08.250Z,65.46
2018-06-10T08:34:36.888Z,66.74
2018-06-10T08:37:05.414Z,65.08
2018-06-10T08:39:33.845Z,63.74
2018-06-10T08:42:02.205Z,63.53
2018-06-10T08:44:30.761Z,63.51
2018-06-10T08:46:59.478Z,63.37
2018-06-10T08:49:27.919Z,62.92
2018-06-10T08:51:56.702Z,64.80
2018-06-10T08:54:25.164Z,63.78
2018-06-10T08:56:54.512Z,63.30
2018-06-10T08:59:23.174Z,62.99
2018-06-10T09:01:52.377Z,62.17
2018-06-10T09:04:20.631Z,61.49
2018-06-10T09:06:49.466Z,63.13
2018-06-10T09:09:22.108Z,60.31
2018-06-10T09:11:50.812Z,60.85
2018-06-10T09:14:19.738Z,60.97
2018-06-10T09:16:48.226Z,62.38
2018-06-10T09:19:16.949Z,62.38
2018-06-10T09:21:45.230Z,62.21
2018-06-10T09:24:13.337Z,63.02
2018-06-10T09:26:41.638Z,63.49
2018-06-10T09:29:09.914Z,63.89
2018-06-10T09:31:38.482Z,63.88
2018-06-10T09:34:07.057Z,63.57
2018-06-10T09:36:36.022Z,63.55
2018-06-10T09:39:08.051Z,63.66
2018-06-10T09:41:36.630Z,63.87
2018-06-10T09:44:05.114Z,63.46
2018-06-10T09:46:33.873Z,64.20
2018-06-10T09:49:02.593Z,62.38
2018-06-10T09:51:31.693Z,62.67
2018-06-10T09:54:00.043Z,60.45
2018-06-10T09:56:28.373Z,61.85
2018-06-10T09:58:57.227Z,59.49
2018-06-10T10:01:30.282Z,59.99
2018-06-10T10:04:01.396Z,58.93
2018-06-10T10:06:29.863Z,59.13
2018-06-10T10:08:58.928Z,59.65
2018-06-10T10:11:28.003Z,61.25
2018-06-10T10:13:56.404Z,59.33
2018-06-10T10:16:24.742Z,59.26
2018-06-10T10:18:53.060Z,61.33
2018-06-10T10:21:21.435Z,61.25
2018-06-10T10:23:49.691Z,61.21
2018-06-10T10:26:18.292Z,59.39
2018-06-10T10:28:46.748Z,58.84
2018-06-10T10:31:15.058Z,59.92
2018-06-10T10:33:43.361Z,57.93
2018-06-10T10:36:11.778Z,58.32
2018-06-10T10:38:40.086Z,57.13
2018-06-10T10:41:08.263Z,55.99
2018-06-10T10:43:36.595Z,58.44
2018-06-10T10:46:04.873Z,59.99
2018-06-10T10:48:33.133Z,56.97
2018-06-10T10:51:01.662Z,57.71
2018-06-10T10:53:30.136Z,54.94
2018-06-10T10:55:58.648Z,54.14
2018-06-10T10:58:26.863Z,54.65
2018-06-10T11:00:55.167Z,56.31
2018-06-10T11:03:23.403Z,58.66
2018-06-10T11:05:51.803Z,60.64
2018-06-10T11:08:20.105Z,59.67
2018-06-10T11:10:48.282Z,58.57
2018-06-10T11:13:16.560Z,59.14
2018-06-10T11:15:44.738Z,55.85
2018-06-10T11:18:12.954Z,54.18
2018-06-10T11:20:41.194Z,53.67
2018-06-10T11:23:09.370Z,53.78
2018-06-10T11:25:37.575Z,54.15
2018-06-10T11:28:06.419Z,54.25
2018-06-10T11:30:34.612Z,55.53
2018-06-10T11:33:02.912Z,55.12
2018-06-10T11:35:31.118Z,53.46
2018-06-10T11:37:59.284Z,53.40
2018-06-10T11:40:27.565Z,51.99
2018-06-10T11:42:56.632Z,49.24
2018-06-10T11:45:24.899Z,48.28
2018-06-10T11:47:53.331Z,48.33
2018-06-10T11:50:21.461Z,46.30
2018-06-10T11:52:49.974Z,46.22
2018-06-10T11:55:18.248Z,47.53
2018-06-10T11:57:46.399Z,46.73
2018-06-10T12:00:14.564Z,46.37
2018-06-10T12:02:42.773Z,46.72
2018-06-10T12:05:10.937Z,46.37
2018-06-10T12:07:39.107Z,46.70
2018-06-10T12:10:07.714Z,48.35
2018-06-10T12:12:36.074Z,46.83
2018-06-10T12:15:04.375Z,45.96
2018-06-10T12:17:32.546Z,47.88
2018-06-10T12:20:00.812Z,47.02
2018-06-10T12:22:29.097Z,48.34
2018-06-10T12:24:57.403Z,49.78
2018-06-10T12:27:25.987Z,48.23
2018-06-10T12:29:54.199Z,49.54
2018-06-10T12:32:22.451Z,48.31
2018-06-10T12:34:50.747Z,48.10
2018-06-10T12:37:19.059Z,48.14
2018-06-10T12:39:47.265Z,48.03
2018-06-10T12:42:15.661Z,46.66
2018-06-10T12:44:43.971Z,47.08
2018-06-10T12:47:12.745Z,47.44
2018-06-10T12:49:40.937Z,48.44
2018-06-10T12:52:09.176Z,48.35
2018-06-10T12:54:37.360Z,49.48
2018-06-10T12:57:05.637Z,48.62
2018-06-10T12:59:33.824Z,50.73
2018-06-10T13:02:02.754Z,47.88
2018-06-10T13:04:31.046Z,48.91
2018-06-10T13:06:59.201Z,49.32
2018-06-10T13:09:27.503Z,46.71
2018-06-10T13:11:55.576Z,47.28
2018-06-10T13:14:23.770Z,48.76
2018-06-10T13:16:52.013Z,46.31
2018-06-10T13:19:20.285Z,47.95
2018-06-10T13:21:48.618Z,48.00
2018-06-10T13:24:16.862Z,49.08
2018-06-10T13:26:45.063Z,50.11
2018-06-10T13:29:13.278Z,50.58
2018-06-10T13:31:41.458Z,51.20
2018-06-10T13:34:09.657Z,52.24
2018-06-10T13:36:37.848Z,52.65
2018-06-10T13:39:08.214Z,51.67
2018-06-10T13:41:36.422Z,53.08
2018-06-10T13:44:04.633Z,50.12
2018-06-10T13:46:32.961Z,51.73
2018-06-10T13:49:01.238Z,51.25
2018-06-10T13:51:29.366Z,51.15
2018-06-10T13:53:57.651Z,51.57
2018-06-10T13:56:25.778Z,48.00
2018-06-10T13:58:53.951Z,49.53
2018-06-10T14:01:22.150Z,50.53
2018-06-10T14:03:50.411Z,49.79
2018-06-10T14:06:19.177Z,49.55
2018-06-10T14:08:47.354Z,50.11
2018-06-10T14:11:15.621Z,52.09
2018-06-10T14:13:43.828Z,53.53
2018-06-10T14:16:12.439Z,59.68
2018-06-10T14:18:40.748Z,66.04
2018-06-10T14:21:08.974Z,76.08
2018-06-10T14:23:37.326Z,82.85
2018-06-10T14:26:05.663Z,88.03
2018-06-10T14:28:33.974Z,91.21
2018-06-10T14:31:02.553Z,92.79
2018-06-10T14:33:30.810Z,93.13
2018-06-10T14:35:59.144Z,90.40
2018-06-10T14:38:27.407Z,88.73
2018-06-10T14:40:55.765Z,85.15
2018-06-10T14:43:24.341Z,82.18
2018-06-10T14:46:00.563Z,77.76
2018-06-10T14:48:29.050Z,78.57
2018-06-10T14:50:57.447Z,73.31
2018-06-10T14:53:25.801Z,73.85
2018-06-10T14:55:53.939Z,71.76
2018-06-10T14:58:22.499Z,71.30
2018-06-10T15:00:51.007Z,73.32
2018-06-10T15:03:19.314Z,70.01
2018-06-10T15:05:47.590Z,62.95
2018-06-10T15:08:15.959Z,58.60
2018-06-10T15:10:46.528Z,55.03
2018-06-10T15:13:14.978Z,63.09
2018-06-10T15:15:43.448Z,63.54
2018-06-10T15:18:12.031Z,62.74
2018-06-10T15:20:40.569Z,66.86
2018-06-10T15:23:09.041Z,66.96
2018-06-10T15:25:37.407Z,63.99
2018-06-10T15:28:05.778Z,62.63
2018-06-10T15:30:34.185Z,64.84
2018-06-10T15:33:02.661Z,60.37
2018-06-10T15:35:31.257Z,61.69
2018-06-10T15:37:59.589Z,62.08
2018-06-10T15:40:28.039Z,59.91
2018-06-10T15:42:56.543Z,59.84
2018-06-10T15:45:24.862Z,55.44
2018-06-10T15:47:53.299Z,53.76
2018-06-10T15:50:21.646Z,56.24
2018-06-10T15:52:50.027Z,57.05
2018-06-10T15:55:18.146Z,56.50
2018-06-10T15:57:46.468Z,57.00
2018-06-10T16:00:14.743Z,48.93
2018-06-10T16:02:43.115Z,53.27
2018-06-10T16:05:11.411Z,50.99
2018-06-10T16:07:39.754Z,50.42
2018-06-10T16:10:08.008Z,53.23
2018-06-10T16:12:36.504Z,53.13
2018-06-10T16:15:05.098Z,49.61
2018-06-10T16:17:33.569Z,51.25
2018-06-10T16:20:01.923Z,53.13
2018-06-10T16:22:30.507Z,53.23
2018-06-10T16:24:59.088Z,55.32
2018-06-10T16:27:27.431Z,57.83
2018-06-10T16:29:56.056Z,55.78
2018-06-10T16:32:24.614Z,55.53
2018-06-10T16:34:53.086Z,53.33
2018-06-10T16:37:21.566Z,48.76
2018-06-10T16:39:50.459Z,52.00
2018-06-10T16:42:19.771Z,51.72
2018-06-10T16:44:48.386Z,51.49
2018-06-10T16:47:16.763Z,51.87
2018-06-10T16:49:45.239Z,51.12
2018-06-10T16:52:13.721Z,51.79
2018-06-10T16:54:42.095Z,51.84
2018-06-10T16:57:11.274Z,54.73
2018-06-10T16:59:39.814Z,57.84
2018-06-10T17:02:09.396Z,51.16
2018-06-10T17:04:37.851Z,51.67
2018-06-10T17:07:06.182Z,52.51
2018-06-10T17:09:34.647Z,51.94
2018-06-10T17:12:03.077Z,51.18
2018-06-10T17:14:31.527Z,52.22
2018-06-10T17:16:59.986Z,55.29
2018-06-10T17:19:28.472Z,52.40
2018-06-10T17:21:57.102Z,55.19
2018-06-10T17:24:26.035Z,54.01
2018-06-10T17:26:54.418Z,59.52
2018-06-10T17:29:22.727Z,63.39
2018-06-10T17:31:51.108Z,63.31
2018-06-10T17:34:19.446Z,64.68
2018-06-10T17:36:48.106Z,66.45
2018-06-10T17:39:17.677Z,65.38
2018-06-10T17:41:46.319Z,64.82
2018-06-10T17:44:15.030Z,63.76
2018-06-10T17:46:43.482Z,64.50
2018-06-10T17:49:12.227Z,64.40
2018-06-10T17:51:40.861Z,62.27
2018-06-10T17:54:09.620Z,62.40
2018-06-10T17:56:38.553Z,63.06
2018-06-10T17:59:06.889Z,62.27
2018-06-10T18:01:36.906Z,61.71
2018-06-10T18:04:05.507Z,61.39
2018-06-10T18:06:34.298Z,61.02
2018-06-10T18:09:06.160Z,59.78
2018-06-10T18:11:35.120Z,62.75
2018-06-10T18:14:04.099Z,63.73
2018-06-10T18:16:32.643Z,64.79
2018-06-10T18:19:01.130Z,62.02
2018-06-10T18:21:29.522Z,64.32
2018-06-10T18:23:57.789Z,67.48
2018-06-10T18:26:26.786Z,70.69
2018-06-10T18:28:55.383Z,79.33
2018-06-10T18:31:23.739Z,85.50
2018-06-10T18:33:52.089Z,92.36
2018-06-10T18:36:20.433Z,96.98
2018-06-10T18:38:48.858Z,99.71
2018-06-10T18:41:17.124Z,100.00
2018-06-10T18:43:45.633Z,100.00
2018-06-10T18:46:14.309Z,100.00
2018-06-10T18:48:42.671Z,88.57
2018-06-10T18:51:11.307Z,92.97
2018-06-10T18:53:40.094Z,95.48
2018-06-10T18:56:12.465Z,94.18
2018-06-10T18:58:41.110Z,94.60
2018-06-10T19:01:09.874Z,95.80
2018-06-10T19:03:38.431Z,97.12
2018-06-10T19:06:07.957Z,95.85
2018-06-10T19:08:36.861Z,96.29
2018-06-10T19:11:06.063Z,97.83
2018-06-10T19:13:34.691Z,97.00
2018-06-10T19:16:03.171Z,97.04
2018-06-10T19:18:31.743Z,97.27
2018-06-10T19:21:00.242Z,95.52
2018-06-10T19:23:28.783Z,94.82
2018-06-10T19:25:57.224Z,91.24
2018-06-10T19:28:26.367Z,92.31
2018-06-10T19:30:55.208Z,92.89
2018-06-10T19:33:24.234Z,94.56
2018-06-10T19:35:52.761Z,92.06
2018-06-10T19:38:21.229Z,94.94
2018-06-10T19:40:50.072Z,94.42
2018-06-10T19:43:18.879Z,95.58
2018-06-10T19:45:47.542Z,95.68
2018-06-10T19:48:16.170Z,95.27
2018-06-10T19:50:44.852Z,87.11
2018-06-10T19:53:13.334Z,87.40
2018-06-10T19:55:41.794Z,89.08
2018-06-10T19:58:10.203Z,88.53
2018-06-10T20:00:38.788Z,87.11
2018-06-10T20:03:07.161Z,86.20
2018-06-10T20:05:35.584Z,87.39
2018-06-10T20:08:03.982Z,90.89
2018-06-10T20:10:32.421Z,91.45
2018-06-10T20:13:00.698Z,91.46
2018-06-10T20:15:28.977Z,93.45
2018-06-10T20:17:57.331Z,95.86
2018-06-10T20:20:25.511Z,96.32
2018-06-10T20:22:53.776Z,94.85
2018-06-10T20:25:21.958Z,94.93
2018-06-10T20:27:50.179Z,92.00
2018-06-10T20:30:18.597Z,92.05
2018-06-10T20:32:46.795Z,92.32
2018-06-10T20:35:14.987Z,90.63
2018-06-10T20:37:43.121Z,93.25
2018-06-10T20:40:11.325Z,93.43
2018-06-10T20:42:40.047Z,91.59
2018-06-10T20:45:08.182Z,93.52
2018-06-10T20:47:36.347Z,96.07
2018-06-10T20:50:04.675Z,95.40
2018-06-10T20:52:32.958Z,95.57
2018-06-10T20:55:01.197Z,94.81
2018-06-10T20:57:31.908Z,96.72
2018-06-10T21:00:00.182Z,99.14
2018-06-10T21:02:28.515Z,100.00
2018-06-10T21:04:56.742Z,99.08
2018-06-10T21:07:25.022Z,97.99
2018-06-10T21:09:53.199Z,97.10
2018-06-10T21:12:21.383Z,97.40
2018-06-10T21:14:49.574Z,99.34
2018-06-10T21:17:17.725Z,100.00
2018-06-10T21:19:45.939Z,100.00
2018-06-10T21:22:14.143Z,98.91
2018-06-10T21:24:42.292Z,97.96
2018-06-10T21:27:10.490Z,99.41
2018-06-10T21:29:38.774Z,99.61
2018-06-10T21:32:07.761Z,99.42
2018-06-10T21:34:35.981Z,99.50
2018-06-10T21:37:04.233Z,100.00
2018-06-10T21:39:32.422Z,98.68
2018-06-10T21:42:00.759Z,99.72
2018-06-10T21:44:28.966Z,98.91
2018-06-10T21:46:57.154Z,99.47
2018-06-10T21:49:25.279Z,99.16
2018-06-10T21:51:53.779Z,98.50
2018-06-10T21:54:22.471Z,97.77
2018-06-10T21:56:51.065Z,96.04
2018-06-10T21:59:19.161Z,95.09
2018-06-10T22:01:47.832Z,96.31
2018-06-10T22:04:15.982Z,93.51
2018-06-10T22:06:44.176Z,94.18
2018-06-10T22:09:12.390Z,96.10
2018-06-10T22:11:40.708Z,99.09
2018-06-10T22:14:08.937Z,96.78
2018-06-10T22:16:37.078Z,96.80
2018-06-10T22:19:05.430Z,98.05
2018-06-10T22:21:33.604Z,96.91
2018-06-10T22:24:01.777Z,95.41
2018-06-10T22:26:29.843Z,95.65
2018-06-10T22:28:58.120Z,96.94
2018-06-10T22:31:26.246Z,97.23
2018-06-10T22:33:54.420Z,96.44
2018-06-10T22:36:22.647Z,97.47
2018-06-10T22:38:51.082Z,98.75
2018-06-10T22:41:19.217Z,100.00
2018-06-10T22:43:47.355Z,100.00
2018-06-10T22:46:15.508Z,100.00
2018-06-10T22:48:43.722Z,99.91
2018-06-10T22:51:11.864Z,96.93
2018-06-10T22:54:21.957Z,97.86
2018-06-10T22:56:50.108Z,100.00
2018-06-10T22:59:18.342Z,99.63
2018-06-10T23:01:46.595Z,98.28
2018-06-10T23:04:14.762Z,97.93
2018-06-10T23:06:42.878Z,97.65
2018-06-10T23:09:11.154Z,96.72
2018-06-10T23:11:39.277Z,98.62
2018-06-10T23:14:07.385Z,100.00
2018-06-10T23:16:35.565Z,99.29
2018-06-10T23:19:03.896Z,100.00
2018-06-10T23:21:32.035Z,99.73
2018-06-10T23:24:00.213Z,100.00
2018-06-10T23:26:28.312Z,100.00
2018-06-10T23:28:56.840Z,100.00
2018-06-10T23:31:25.017Z,100.00
2018-06-10T23:33:53.116Z,100.00
2018-06-10T23:36:21.218Z,100.00
2018-06-10T23:38:49.473Z,100.00
2018-06-10T23:41:17.580Z,100.00
2018-06-10T23:43:45.876Z,100.00
2018-06-10T23:46:14.037Z,100.00
2018-06-10T23:48:42.217Z,100.00
2018-06-10T23:51:10.496Z,100.00
2018-06-10T23:53:38.589Z,100.00
2018-06-10T23:56:06.762Z,100.00
2018-06-10T23:58:34.943Z,100.00
